.
WxDataArchive / Data Records for 2012-06-28
2012-06-27 June 2012 2012-06-29

Data Records for Thursday, 28 June 2012

Time	Temp	Chill	HIndex	Humid	Dewpt	 Wind 	HiWind	WindDir	Rain 	Barom 
-----	----	-----	------	-----	-----	------	------	-------	-----	----- 
00:00	74.4	74.4	74.4	42	49.8	0	0	---	0.00	29.841 
00:05	74.2	74.2	74.2	42	49.6	0	1	270	0.00	29.841 
00:10	74.2	74.2	74.2	43	50.2	0	0	---	0.00	29.841 
00:15	74.0	74.0	74.0	43	50.1	0	0	---	0.00	29.843 
00:20	74.0	74.0	74.0	43	50.1	0	1	270	0.00	29.843 
00:25	73.9	73.9	73.9	43	50.0	0	0	---	0.00	29.843 
00:30	73.7	73.7	73.7	43	49.8	0	0	---	0.00	29.846 
00:35	73.7	73.7	73.7	44	50.4	0	0	---	0.00	29.846 
00:40	73.5	73.5	73.5	44	50.2	0	1	270	0.00	29.846 
00:45	73.5	73.5	73.5	44	50.2	0	0	---	0.00	29.847 
00:50	73.5	73.5	73.5	44	50.2	0	1	270	0.00	29.847 
00:55	73.5	73.5	73.5	44	50.2	0	1	270	0.00	29.847 
01:00	73.5	73.5	73.5	45	50.8	0	1	270	0.00	29.847 
01:05	73.3	73.3	73.3	45	50.7	0	0	---	0.00	29.847 
01:10	73.2	73.2	73.2	46	51.2	0	0	---	0.00	29.847 
01:15	73.0	73.0	73.0	46	51.0	0	0	---	0.00	29.844 
01:20	72.8	72.8	72.8	46	50.8	0	0	---	0.00	29.844 
01:25	72.7	72.7	72.7	47	51.3	0	0	---	0.00	29.844 
01:30	72.7	72.7	72.7	47	51.3	0	0	---	0.00	29.841 
01:35	72.5	72.5	72.5	47	51.1	0	1	270	0.00	29.841 
01:40	72.3	72.3	72.3	48	51.5	0	0	---	0.00	29.841 
01:45	72.3	72.3	72.3	48	51.5	0	0	---	0.00	29.840 
01:50	72.1	72.1	72.1	48	51.3	0	1	270	0.00	29.840 
01:55	72.1	72.1	72.1	49	51.9	0	0	---	0.00	29.840 
02:00	72.0	72.0	72.0	49	51.8	0	0	---	0.00	29.839 
02:05	71.8	71.8	71.8	49	51.6	0	0	---	0.00	29.839 
02:10	71.6	71.6	71.6	50	52.0	0	0	---	0.00	29.839 
02:15	71.5	71.5	71.5	50	51.9	0	0	---	0.00	29.832 
02:20	71.3	71.3	71.3	50	51.7	0	1	270	0.00	29.832 
02:25	71.3	71.3	71.3	50	51.7	0	1	270	0.00	29.832 
02:30	71.3	71.3	71.3	50	51.7	0	1	270	0.00	29.827 
02:35	71.3	71.3	71.3	51	52.2	0	1	270	0.00	29.827 
02:40	71.3	71.3	71.3	51	52.2	0	1	270	0.00	29.827 
02:45	71.1	71.1	71.1	51	52.0	0	1	270	0.00	29.817 
02:50	71.3	71.3	71.3	51	52.2	0	1	270	0.00	29.817 
02:55	71.3	71.3	71.3	52	52.8	0	1	270	0.00	29.817 
03:00	71.1	71.1	71.1	52	52.6	0	1	270	0.00	29.816 
03:05	71.1	71.1	71.1	52	52.6	0	1	270	0.00	29.816 
03:10	71.1	71.1	71.1	52	52.6	0	1	270	0.00	29.816 
03:15	70.9	70.9	70.9	52	52.4	0	1	270	0.00	29.811 
03:20	70.9	70.9	70.9	52	52.4	0	2	270	0.00	29.811 
03:25	70.9	70.9	70.9	53	52.9	0	0	---	0.00	29.811 
03:30	70.9	70.9	70.9	52	52.4	0	1	270	0.00	29.804 
03:35	70.9	70.9	70.9	52	52.4	0	1	270	0.00	29.804 
03:40	71.1	71.1	71.1	52	52.6	0	2	270	0.00	29.804 
03:45	71.1	71.1	71.1	52	52.6	0	1	270	0.00	29.800 
03:50	71.3	71.3	71.3	52	52.8	0	2	270	0.00	29.800 
03:55	71.3	71.3	71.3	52	52.8	0	1	270	0.00	29.800 
04:00	71.5	71.5	71.5	52	52.9	0	2	270	0.00	29.793 
04:05	71.5	71.5	71.5	52	52.9	0	1	270	0.00	29.793 
04:10	71.5	71.5	71.5	52	52.9	0	1	270	0.00	29.793 
04:15	71.6	71.6	71.6	51	52.5	1	3	270	0.00	29.785 
04:20	71.8	71.8	71.8	51	52.7	0	1	270	0.00	29.785 
04:25	72.0	72.0	72.0	50	52.3	0	2	270	0.00	29.785 
04:30	72.1	72.1	72.1	50	52.4	0	2	270	0.00	29.781 
04:35	72.3	72.3	72.3	50	52.6	1	3	270	0.00	29.781 
04:40	72.5	72.5	72.5	49	52.2	0	2	270	0.00	29.781 
04:45	72.7	72.7	72.7	48	51.9	0	1	270	0.00	29.776 
04:50	72.8	72.8	72.8	48	52.0	0	2	270	0.00	29.776 
04:55	73.2	73.2	73.2	47	51.7	1	3	270	0.00	29.776 
05:00	73.5	73.5	73.5	46	51.4	1	4	270	0.00	29.771 
05:05	74.0	74.0	74.0	45	51.3	1	4	248	0.00	29.771 
05:10	74.2	74.2	74.2	45	51.5	1	3	248	0.00	29.771 
05:15	74.4	74.4	74.4	44	51.0	1	3	270	0.00	29.765 
05:20	74.6	74.6	74.6	44	51.2	1	5	248	0.00	29.765 
05:25	74.7	74.7	74.7	43	50.7	1	5	270	0.00	29.765 
05:30	75.1	75.1	77.6	43	51.1	1	3	270	0.00	29.767 
05:35	75.1	75.1	77.6	43	51.1	1	3	248	0.00	29.767 
05:40	75.1	75.1	77.6	43	51.1	1	3	248	0.00	29.767 
05:45	75.1	75.1	77.6	43	51.1	1	3	248	0.00	29.772 
05:50	75.1	75.1	77.6	43	51.1	1	3	248	0.00	29.772 
05:55	75.1	75.1	77.6	43	51.1	1	4	248	0.00	29.772 
06:00	75.1	75.1	77.6	43	51.1	1	3	248	0.00	29.776 
06:05	75.1	75.1	77.6	43	51.1	1	4	248	0.00	29.776 
06:10	75.1	75.1	77.6	43	51.1	1	3	248	0.00	29.776 
06:15	75.3	75.3	77.7	43	51.2	1	4	248	0.00	29.782 
06:20	75.3	75.3	77.7	43	51.2	1	3	248	0.00	29.782 
06:25	75.3	75.3	77.7	43	51.2	0	2	315	0.00	29.782 
06:30	75.1	75.1	77.6	43	51.1	0	2	315	0.00	29.783 
06:35	75.1	75.1	77.6	43	51.1	2	4	315	0.00	29.783 
06:40	75.3	75.3	77.7	43	51.2	1	3	270	0.00	29.783 
06:45	75.4	75.4	77.7	43	51.3	1	3	270	0.00	29.783 
06:50	75.4	75.4	77.7	43	51.3	0	2	270	0.00	29.783 
06:55	75.4	75.4	77.7	43	51.3	1	2	270	0.00	29.783 
07:00	75.6	75.6	77.8	43	51.5	1	2	270	0.00	29.784 
07:05	75.6	75.6	77.8	43	51.5	0	2	270	0.00	29.784 
07:10	75.6	75.6	77.8	43	51.5	1	2	270	0.00	29.784 
07:15	75.8	75.8	77.8	43	51.7	1	4	270	0.00	29.783 
07:20	76.0	76.0	77.9	42	51.2	1	3	270	0.00	29.783 
07:25	76.3	76.3	78.0	42	51.5	1	3	270	0.00	29.783 
07:30	76.5	76.5	78.1	42	51.7	1	3	270	0.00	29.782 
07:35	76.8	76.8	78.2	42	51.9	1	4	270	0.00	29.782 
07:40	77.0	77.0	78.3	42	52.1	1	3	270	0.00	29.782 
07:45	77.4	77.4	78.5	41	51.8	1	4	270	0.00	29.783 
07:50	77.6	77.6	78.6	42	52.7	1	2	270	0.00	29.783 
07:55	77.7	77.7	78.6	41	52.1	1	4	270	0.00	29.783 
08:00	77.9	77.9	78.7	41	52.3	2	5	270	0.00	29.781 
08:05	78.3	78.3	78.9	41	52.6	1	3	270	0.00	29.781 
08:10	78.6	78.6	79.1	41	52.9	2	4	270	0.00	29.781 
08:15	78.8	78.8	79.2	41	53.1	1	3	270	0.00	29.784 
08:20	79.2	79.2	79.5	41	53.4	1	3	270	0.00	29.784 
08:25	79.4	79.4	79.5	40	52.9	2	5	270	0.00	29.784 
08:30	79.2	79.2	79.4	40	52.8	2	4	292	0.00	29.783 
08:35	79.2	79.2	79.5	41	53.4	2	4	292	0.00	29.783 
08:40	79.0	79.0	79.4	42	53.9	1	4	292	0.00	29.783 
08:45	79.2	79.2	79.5	42	54.1	2	4	292	0.00	29.785 
08:50	79.4	79.4	79.7	42	54.3	2	6	292	0.00	29.785 
08:55	79.4	79.4	79.7	42	54.3	1	4	270	0.00	29.785 
09:00	79.8	79.8	80.0	42	54.6	1	3	270	0.00	29.788 
09:05	80.1	80.1	80.2	42	54.9	2	4	270	0.00	29.788 
09:10	80.5	80.5	80.5	42	55.3	2	5	270	0.00	29.788 
09:15	81.1	81.1	80.9	42	55.8	2	6	270	0.00	29.783 
09:20	81.6	81.6	81.2	41	55.6	1	4	270	0.00	29.783 
09:25	82.2	82.2	81.7	41	56.1	2	4	270	0.00	29.783 
09:30	82.6	82.6	82.1	41	56.5	2	4	248	0.00	29.780 
09:35	83.0	83.0	82.5	41	56.8	2	6	270	0.00	29.780 
09:40	83.6	83.6	83.0	41	57.4	2	4	270	0.00	29.780 
09:45	84.0	84.0	83.3	40	57.0	2	4	270	0.00	29.781 
09:50	84.1	84.1	83.2	39	56.4	3	8	270	0.00	29.781 
09:55	84.3	84.3	83.8	41	58.0	2	4	270	0.00	29.781 
10:00	84.7	84.7	84.0	40	57.7	2	6	270	0.00	29.778 
10:05	85.1	85.1	84.4	40	58.0	2	4	292	0.00	29.778 
10:10	85.3	85.3	84.7	40	58.2	3	5	270	0.00	29.778 
10:15	85.5	85.5	84.9	40	58.4	2	5	292	0.00	29.778 
10:20	85.9	85.9	85.1	39	58.0	2	5	270	0.00	29.778 
10:25	86.5	86.5	86.0	40	59.3	2	4	270	0.00	29.778 
10:30	87.2	87.2	86.6	39	59.2	2	4	270	0.00	29.776 
10:35	87.6	87.6	87.1	39	59.5	3	5	270	0.00	29.776 
10:40	87.6	87.6	87.1	39	59.5	3	5	270	0.00	29.776 
10:45	87.8	87.8	87.6	40	60.4	2	4	292	0.00	29.776 
10:50	88.0	88.0	87.9	40	60.6	2	4	292	0.00	29.776 
10:55	88.2	88.2	87.9	39	60.1	2	4	292	0.00	29.776 
11:00	88.6	88.6	88.4	39	60.4	2	5	292	0.00	29.770 
11:05	88.6	88.6	88.4	39	60.4	3	4	292	0.00	29.770 
11:10	89.3	89.3	90.0	41	62.5	2	3	292	0.00	29.770 
11:15	89.9	89.9	89.9	38	60.8	2	4	248	0.00	29.765 
11:20	90.1	90.1	90.5	39	61.8	2	4	315	0.00	29.765 
11:25	90.5	90.5	90.7	38	61.4	2	4	292	0.00	29.765 
11:30	90.7	90.7	91.0	38	61.6	2	4	292	0.00	29.765 
11:35	91.0	91.0	91.5	38	61.8	2	5	292	0.00	29.765 
11:40	91.0	91.0	91.1	37	61.1	2	4	292	0.00	29.765 
11:45	91.0	91.0	91.5	38	61.8	2	4	292	0.00	29.764 
11:50	91.0	91.0	91.1	37	61.1	3	6	270	0.00	29.764 
11:55	91.2	91.2	92.1	39	62.7	2	5	270	0.00	29.764 
12:00	91.2	91.2	91.4	37	61.2	2	5	270	0.00	29.761 
12:05	91.4	91.4	92.1	38	62.2	2	5	270	0.00	29.761 
12:10	91.8	91.8	92.7	38	62.5	2	5	292	0.00	29.761 
12:15	92.3	92.3	93.1	37	62.2	2	4	270	0.00	29.752 
12:20	92.7	92.7	94.1	38	63.3	1	3	270	0.00	29.752 
12:25	93.6	93.6	95.1	37	63.4	1	4	270	0.00	29.752 
12:30	93.8	93.8	95.4	37	63.5	1	3	292	0.00	29.744 
12:35	94.3	94.3	95.8	36	63.2	1	3	292	0.00	29.744 
12:40	94.7	94.7	96.0	35	62.7	2	4	292	0.00	29.744 
12:45	95.1	95.1	96.7	35	63.1	1	3	292	0.00	29.734 
12:50	95.6	95.6	97.5	35	63.5	1	3	292	0.00	29.734 
12:55	95.9	95.9	98.0	35	63.8	2	4	270	0.00	29.734 
13:00	96.3	96.3	99.2	36	64.9	1	3	292	0.00	29.730 
13:05	97.1	97.1	99.0	33	63.1	1	3	292	0.00	29.730 
13:10	97.5	97.5	100.2	34	64.3	1	3	292	0.00	29.730 
13:15	98.0	98.0	100.6	33	63.9	2	5	270	0.00	29.726 
13:20	98.5	98.5	100.9	32	63.5	2	4	270	0.00	29.726 
13:25	98.7	98.7	101.2	32	63.7	2	4	270	0.00	29.726 
13:30	99.2	99.2	102.7	33	65.0	2	4	292	0.00	29.721 
13:35	99.7	99.7	102.4	31	63.6	1	4	292	0.00	29.721 
13:40	99.9	99.9	103.3	32	64.7	2	4	292	0.00	29.721 
13:45	99.9	99.9	102.7	31	63.8	2	5	270	0.00	29.714 
13:50	100.2	100.2	104.5	33	65.8	1	4	270	0.00	29.714 
13:55	100.7	100.7	103.5	30	63.5	3	5	270	0.00	29.714 
14:00	101.2	101.2	105.1	31	64.9	1	4	270	0.00	29.710 
14:05	101.2	101.2	104.4	30	64.0	3	5	270	0.00	29.710 
14:10	101.5	101.5	105.0	30	64.2	2	4	270	0.00	29.710 
14:15	101.7	101.7	105.3	30	64.4	2	5	270	0.00	29.708 
14:20	101.7	101.7	105.3	30	64.4	3	7	270	0.00	29.708 
14:25	102.3	102.3	106.4	30	64.9	2	4	270	0.00	29.708 
14:30	102.5	102.5	106.8	30	65.1	3	6	270	0.00	29.703 
14:35	102.5	102.5	106.1	29	64.1	3	6	270	0.00	29.703 
14:40	102.8	102.8	105.9	28	63.3	3	6	270	0.00	29.703 
14:45	102.5	102.5	106.1	29	64.1	3	6	270	0.00	29.702 
14:50	103.1	103.1	106.5	28	63.6	2	3	270	0.00	29.702 
14:55	103.3	103.3	106.1	27	62.7	3	6	270	0.00	29.702 
15:00	103.6	103.6	106.6	27	63.0	2	4	248	0.00	29.692 
15:05	103.8	103.8	107.7	28	64.2	3	7	248	0.00	29.692 
15:10	103.8	103.8	107.0	27	63.2	4	7	270	0.00	29.692 
15:15	103.8	103.8	107.0	27	63.2	3	6	270	0.00	29.688 
15:20	104.4	104.4	108.1	27	63.7	2	4	270	0.00	29.688 
15:25	104.4	104.4	108.1	27	63.7	3	6	270	0.00	29.688 
15:30	104.6	104.6	108.4	27	63.8	2	6	270	0.00	29.682 
15:35	105.1	105.1	108.6	26	63.2	2	6	248	0.00	29.682 
15:40	105.7	105.7	110.4	27	64.8	3	6	270	0.00	29.682 
15:45	106.0	106.0	110.2	26	63.9	3	6	270	0.00	29.674 
15:50	106.0	106.0	109.4	25	62.8	3	6	270	0.00	29.674 
15:55	106.0	106.0	109.4	25	62.8	3	6	270	0.00	29.674 
16:00	106.0	106.0	108.6	24	61.7	4	7	270	0.00	29.678 
16:05	106.0	106.0	109.4	25	62.8	3	6	270	0.00	29.678 
16:10	106.2	106.2	109.7	25	63.0	3	7	270	0.00	29.678 
16:15	106.2	106.2	109.0	24	61.8	4	7	270	0.00	29.677 
16:20	106.0	106.0	109.4	25	62.8	4	9	270	0.00	29.677 
16:25	105.4	105.4	107.6	24	61.2	5	9	270	0.00	29.677 
16:30	105.4	105.4	108.3	25	62.3	4	6	248	0.00	29.680 
16:35	105.4	105.4	108.3	25	62.3	3	9	270	0.00	29.680 
16:40	105.1	105.1	107.8	25	62.1	4	11	270	0.00	29.680 
16:45	104.9	104.9	108.2	26	63.0	4	7	270	0.00	29.678 
16:50	104.6	104.6	107.0	25	61.6	5	9	270	0.00	29.678 
16:55	104.4	104.4	107.3	26	62.6	4	10	270	0.00	29.678 
17:00	104.6	104.6	107.7	26	62.8	4	9	270	0.00	29.679 
17:05	104.4	104.4	106.6	25	61.5	4	7	270	0.00	29.679 
17:10	104.1	104.1	106.1	25	61.2	5	10	270	0.00	29.679 
17:15	103.8	103.8	106.3	26	62.1	5	10	270	0.00	29.682 
17:20	103.6	103.6	106.6	27	63.0	5	9	270	0.00	29.682 
17:25	103.3	103.3	106.1	27	62.7	4	8	270	0.00	29.682 
17:30	103.3	103.3	106.8	28	63.8	4	10	270	0.00	29.687 
17:35	102.8	102.8	105.9	28	63.3	5	11	270	0.00	29.687 
17:40	102.3	102.3	105.0	28	62.9	6	10	270	0.00	29.687 
17:45	101.7	101.7	104.7	29	63.4	6	11	270	0.00	29.687 
17:50	101.2	101.2	104.4	30	64.0	4	8	270	0.00	29.687 
17:55	101.5	101.5	105.6	31	65.2	3	5	270	0.00	29.687 
18:00	101.2	101.2	105.1	31	64.9	5	7	270	0.00	29.688 
18:05	101.2	101.2	105.8	32	65.8	3	6	270	0.00	29.688 
18:10	101.2	101.2	105.8	32	65.8	4	10	270	0.00	29.688 
18:15	101.2	101.2	105.8	32	65.8	4	7	270	0.00	29.686 
18:20	101.2	101.2	105.8	32	65.8	5	10	270	0.00	29.686 
18:25	101.2	101.2	105.8	32	65.8	4	10	270	0.00	29.686 
18:30	101.0	101.0	105.4	32	65.6	5	10	270	0.00	29.688 
18:35	100.7	100.7	105.5	33	66.3	5	11	270	0.00	29.688 
18:40	100.4	100.4	105.6	34	66.9	5	11	270	0.00	29.688 
18:45	100.2	100.2	104.5	33	65.8	4	7	270	0.00	29.689 
18:50	100.2	100.2	105.9	35	67.5	4	6	270	0.00	29.689 
18:55	99.9	99.9	105.3	35	67.3	6	9	270	0.00	29.689 
19:00	99.7	99.7	105.6	36	67.9	4	9	270	0.00	29.691 
19:05	99.7	99.7	106.3	37	68.7	4	7	270	0.00	29.691 
19:10	99.4	99.4	105.7	37	68.5	4	7	270	0.00	29.691 
19:15	99.4	99.4	105.7	37	68.5	4	7	270	0.00	29.691 
19:20	99.0	99.0	105.6	38	68.9	4	9	270	0.00	29.691 
19:25	98.7	98.7	105.0	38	68.6	4	7	292	0.00	29.691 
19:30	98.5	98.5	105.3	39	69.2	3	6	292	0.00	29.703 
19:35	98.0	98.0	104.9	40	69.5	4	11	270	0.00	29.703 
19:40	97.8	97.8	105.2	41	70.0	3	6	315	0.00	29.703 
19:45	97.5	97.5	105.2	42	70.5	3	7	315	0.00	29.709 
19:50	97.3	97.3	104.8	42	70.3	3	7	270	0.00	29.709 
19:55	96.8	96.8	104.4	43	70.6	4	9	270	0.00	29.709 
20:00	96.6	96.6	104.7	44	71.1	4	7	292	0.00	29.724 
20:05	96.1	96.1	104.3	45	71.3	3	7	315	0.00	29.724 
20:10	95.9	95.9	103.8	45	71.1	2	7	315	0.00	29.724 
20:15	95.6	95.6	103.2	45	70.8	3	5	292	0.00	29.728 
20:20	95.1	95.1	102.7	46	71.0	2	5	292	0.00	29.728 
20:25	94.7	94.7	102.5	47	71.3	2	4	315	0.00	29.728 
20:30	94.5	94.5	101.5	46	70.5	3	5	292	0.00	29.735 
20:35	94.3	94.3	101.0	46	70.3	2	4	292	0.00	29.735 
20:40	94.0	94.0	101.0	47	70.6	2	4	315	0.00	29.735 
20:45	93.8	93.8	100.6	47	70.5	2	4	292	0.00	29.739 
20:50	93.6	93.6	100.2	47	70.3	1	3	292	0.00	29.739 
20:55	93.4	93.4	99.8	47	70.1	1	4	292	0.00	29.739 
21:00	93.2	93.2	99.4	47	69.9	2	7	292	0.00	29.737 
21:05	92.9	92.9	99.3	48	70.3	1	3	292	0.00	29.737 
21:10	92.7	92.7	98.9	48	70.1	1	3	292	0.00	29.737 
21:15	92.5	92.5	99.0	49	70.5	1	3	292	0.00	29.727 
21:20	92.3	92.3	98.6	49	70.3	1	3	292	0.00	29.727 
21:25	92.1	92.1	98.8	50	70.7	1	3	292	0.00	29.727 
21:30	91.8	91.8	98.1	50	70.5	1	3	292	0.00	29.707 
21:35	91.6	91.6	97.7	50	70.3	0	1	292	0.00	29.707 
21:40	91.4	91.4	97.8	51	70.7	0	1	292	0.00	29.707 
21:45	91.0	91.0	97.5	52	70.9	0	1	292	0.00	29.736 
21:50	91.0	91.0	97.5	52	70.9	0	1	292	0.00	29.736 
21:55	90.7	90.7	97.4	53	71.2	0	1	292	0.00	29.736 
22:00	90.5	90.5	97.0	53	71.0	0	1	292	0.00	29.739 
22:05	90.3	90.3	97.1	54	71.4	0	1	292	0.00	29.739 
22:10	89.9	89.9	96.3	54	71.0	0	1	292	0.00	29.739 
22:15	89.9	89.9	96.3	54	71.0	0	1	292	0.00	29.751 
22:20	89.7	89.7	96.4	55	71.3	0	1	292	0.00	29.751 
22:25	89.7	89.7	96.4	55	71.3	0	1	292	0.00	29.751 
22:30	89.7	89.7	96.4	55	71.3	0	2	292	0.00	29.763 
22:35	89.7	89.7	96.4	55	71.3	1	3	292	0.00	29.763 
22:40	89.7	89.7	96.4	55	71.3	1	3	292	0.00	29.763 
22:45	89.7	89.7	96.4	55	71.3	1	2	292	0.00	29.782 
22:50	89.7	89.7	96.4	55	71.3	1	3	292	0.00	29.782 
22:55	89.7	89.7	96.4	55	71.3	2	3	292	0.00	29.782 
23:00	89.9	89.9	96.3	54	71.0	2	5	292	0.00	29.783 
23:05	89.9	89.9	96.3	54	71.0	1	2	292	0.00	29.783 
23:10	89.9	89.9	96.3	54	71.0	1	3	292	0.00	29.783 
23:15	90.1	90.1	96.7	54	71.2	1	5	292	0.00	29.782 
23:20	90.1	90.1	96.7	54	71.2	2	4	292	0.00	29.782 
23:25	90.1	90.1	97.2	55	71.7	1	3	292	0.00	29.782 
23:30	89.9	89.9	97.8	57	72.6	1	4	292	0.00	29.764 
23:35	89.7	89.7	97.4	57	72.4	2	6	315	0.00	29.764 
23:40	89.5	89.5	96.9	57	72.2	1	3	292	0.00	29.764 
23:45	89.3	89.3	97.0	58	72.5	1	3	292	0.00	29.750 
23:50	88.8	88.8	96.4	59	72.6	1	4	292	0.00	29.750 
23:55	88.6	88.6	96.0	59	72.4	0	2	292	0.00	29.750 

CoCoRaHS
IN-AL-39
A2 Web Hosting
Creative Commons License
GoDaddy
search engine by freefind advanced

loaded 2018-11-15 03:53:30 • last modified 2010-11-18 10:43:29
Privacy PolicyDisclaimer
• wx.awcolley.com is powered by PmWiki v.2002016 •
• all content (unless otherwise noted) © 2018 A W Colley